createdAt,value
2019-04-14T00:00:14.292Z,13.50
2019-04-14T00:02:53.312Z,13.51
2019-04-14T00:05:23.778Z,13.50
2019-04-14T00:07:54.364Z,13.52
2019-04-14T00:10:24.805Z,13.43
2019-04-14T00:12:55.644Z,13.37
2019-04-14T00:15:32.959Z,13.36
2019-04-14T00:17:58.957Z,13.42
2019-04-14T00:20:29.458Z,13.46
2019-04-14T00:22:59.924Z,13.43
2019-04-14T00:25:30.566Z,13.48
2019-04-14T00:28:01.015Z,13.49
2019-04-14T00:30:31.691Z,13.38
2019-04-14T00:33:04.153Z,13.38
2019-04-14T00:35:53.866Z,13.33
2019-04-14T00:38:34.569Z,13.33
2019-04-14T00:41:17.991Z,13.34
2019-04-14T00:44:05.969Z,13.36
2019-04-14T00:47:01.134Z,13.29
2019-04-14T00:49:31.616Z,13.26
2019-04-14T00:52:02.166Z,13.26
2019-04-14T00:54:32.702Z,13.31
2019-04-14T00:57:03.224Z,13.27
2019-04-14T00:59:33.716Z,13.24
2019-04-14T01:02:05.574Z,13.11
2019-04-14T01:04:36.157Z,13.24
2019-04-14T01:07:06.596Z,13.21
2019-04-14T01:09:37.058Z,13.20
2019-04-14T01:12:08.220Z,13.25
2019-04-14T01:14:38.881Z,13.23
2019-04-14T01:17:09.495Z,13.20
2019-04-14T01:19:39.979Z,13.22
2019-04-14T01:22:10.423Z,13.17
2019-04-14T01:24:40.895Z,13.18
2019-04-14T01:27:12.435Z,13.15
2019-04-14T01:29:42.887Z,13.12
2019-04-14T01:32:13.354Z,13.10
2019-04-14T01:34:43.786Z,13.06
2019-04-14T01:37:14.254Z,13.05
2019-04-14T01:39:45.948Z,13.04
2019-04-14T01:42:16.556Z,13.08
2019-04-14T01:44:48.091Z,13.05
2019-04-14T01:47:18.663Z,13.07
2019-04-14T01:49:49.090Z,13.07
2019-04-14T01:52:50.407Z,13.03
2019-04-14T01:55:37.699Z,13.07
2019-04-14T01:58:12.212Z,13.07
2019-04-14T02:01:14.838Z,13.06
2019-04-14T02:03:45.590Z,13.04
2019-04-14T02:06:16.059Z,13.07
2019-04-14T02:08:47.716Z,13.06
2019-04-14T02:11:18.424Z,13.08
2019-04-14T02:13:48.881Z,13.07
2019-04-14T02:16:30.493Z,13.08
2019-04-14T02:18:53.572Z,12.99
2019-04-14T02:21:23.837Z,13.02
2019-04-14T02:23:54.275Z,13.04
2019-04-14T02:26:25.126Z,12.98
2019-04-14T02:28:57.188Z,13.03
2019-04-14T02:31:53.158Z,12.99
2019-04-14T02:34:34.576Z,12.99
2019-04-14T02:42:30.173Z,13.00
2019-04-14T02:44:38.041Z,13.06
2019-04-14T02:47:17.890Z,13.06
2019-04-14T02:49:49.251Z,13.07
2019-04-14T02:52:12.083Z,13.06
2019-04-14T02:54:51.751Z,13.05
2019-04-14T02:57:30.430Z,13.05
2019-04-14T02:59:54.424Z,13.06
2019-04-14T03:02:30.484Z,13.06
2019-04-14T03:04:56.847Z,13.03
2019-04-14T03:07:34.078Z,13.00
2019-04-14T03:09:53.773Z,12.98
2019-04-14T03:12:31.737Z,12.85
2019-04-14T03:15:01.889Z,12.84
2019-04-14T03:17:47.389Z,12.84
2019-04-14T03:20:47.618Z,12.86
2019-04-14T03:23:17.149Z,12.90
2019-04-14T03:26:09.640Z,12.88
2019-04-14T03:28:38.688Z,12.88
2019-04-14T03:31:41.683Z,12.88
2019-04-14T03:36:58.198Z,12.83
2019-04-14T03:43:50.782Z,12.87
2019-04-14T03:46:33.296Z,12.86
2019-04-14T03:49:10.071Z,12.79
2019-04-14T03:51:38.234Z,12.79
2019-04-14T03:53:59.096Z,12.69
2019-04-14T03:57:01.854Z,12.71
2019-04-14T03:59:32.409Z,12.66
2019-04-14T04:02:03.199Z,12.68
2019-04-14T04:04:33.840Z,12.63
2019-04-14T04:07:04.446Z,12.55
2019-04-14T04:09:41.785Z,12.58
2019-04-14T04:12:12.270Z,12.51
2019-04-14T04:14:42.705Z,12.59
2019-04-14T04:17:47.297Z,12.57
2019-04-14T04:20:37.134Z,12.59
2019-04-14T04:23:42.437Z,12.58
2019-04-14T04:26:39.326Z,12.62
2019-04-14T04:29:31.695Z,12.62
2019-04-14T04:32:21.017Z,12.65
2019-04-14T04:35:04.295Z,12.67
2019-04-14T04:37:50.149Z,12.71
2019-04-14T04:40:24.701Z,12.73
2019-04-14T04:42:55.236Z,12.60
2019-04-14T04:45:25.744Z,12.65
2019-04-14T04:47:56.221Z,12.70
2019-04-14T04:50:26.707Z,12.67
2019-04-14T04:52:58.219Z,12.70
2019-04-14T04:55:28.822Z,12.69
2019-04-14T04:57:59.320Z,12.68
2019-04-14T05:00:30.966Z,12.52
2019-04-14T05:03:01.478Z,12.56
2019-04-14T05:06:11.390Z,12.51
2019-04-14T05:08:48.510Z,12.51
2019-04-14T05:11:25.116Z,12.55
2019-04-14T05:13:56.228Z,12.56
2019-04-14T05:16:26.656Z,12.48
2019-04-14T05:19:10.580Z,12.53
2019-04-14T05:21:29.963Z,12.57
2019-04-14T05:24:00.688Z,12.58
2019-04-14T05:26:31.179Z,12.63
2019-04-14T05:29:01.625Z,12.64
2019-04-14T05:31:32.137Z,12.64
2019-04-14T05:34:02.598Z,12.65
2019-04-14T05:36:33.037Z,12.61
2019-04-14T05:39:04.633Z,12.66
2019-04-14T05:41:35.394Z,12.70
2019-04-14T05:44:06.393Z,12.65
2019-04-14T05:46:38.098Z,12.74
2019-04-14T05:49:08.662Z,12.59
2019-04-14T05:51:39.375Z,12.64
2019-04-14T05:54:10.041Z,12.65
2019-04-14T05:56:40.790Z,12.70
2019-04-14T05:59:11.409Z,12.72
2019-04-14T06:01:42.144Z,12.77
2019-04-14T06:04:13.610Z,12.80
2019-04-14T06:06:44.136Z,12.85
2019-04-14T06:09:14.579Z,12.84
2019-04-14T06:11:46.219Z,12.86
2019-04-14T06:14:16.729Z,12.93
2019-04-14T06:16:47.162Z,12.93
2019-04-14T06:19:17.602Z,12.98
2019-04-14T06:21:48.085Z,12.96
2019-04-14T06:24:18.535Z,12.98
2019-04-14T06:26:49.019Z,13.03
2019-04-14T06:29:19.498Z,13.06
2019-04-14T06:32:08.818Z,13.09
2019-04-14T06:34:46.313Z,13.08
2019-04-14T06:37:30.538Z,13.09
2019-04-14T06:40:01.152Z,13.05
2019-04-14T06:42:31.587Z,13.13
2019-04-14T06:45:02.072Z,13.15
2019-04-14T06:47:32.519Z,13.01
2019-04-14T06:50:02.993Z,12.94
2019-04-14T06:52:33.483Z,13.05
2019-04-14T06:55:04.019Z,13.09
2019-04-14T06:57:34.509Z,12.96
2019-04-14T07:00:05.406Z,12.96
2019-04-14T07:02:35.841Z,12.96
2019-04-14T07:05:06.671Z,12.68
2019-04-14T07:07:37.106Z,12.58
2019-04-14T07:10:07.608Z,12.48
2019-04-14T07:12:38.084Z,12.51
2019-04-14T07:15:08.839Z,12.45
2019-04-14T07:17:39.299Z,12.29
2019-04-14T07:20:10.086Z,12.30
2019-04-14T07:22:40.562Z,12.31
2019-04-14T07:25:11.119Z,12.34
2019-04-14T07:27:41.595Z,12.19
2019-04-14T07:30:31.402Z,12.25
2019-04-14T07:33:32.937Z,12.30
2019-04-14T07:36:20.675Z,11.43
2019-04-14T07:39:08.791Z,12.46
2019-04-14T07:41:51.265Z,12.33
2019-04-14T07:44:52.594Z,12.50
2019-04-14T07:47:37.002Z,12.38
2019-04-14T07:50:17.288Z,12.30
2019-04-14T07:53:18.393Z,12.50
2019-04-14T07:55:53.659Z,12.56
2019-04-14T07:58:48.829Z,12.68
2019-04-14T08:01:26.032Z,12.74
2019-04-14T08:04:14.164Z,12.81
2019-04-14T08:06:52.762Z,13.08
2019-04-14T08:09:23.389Z,13.09
2019-04-14T08:11:53.859Z,13.34
2019-04-14T08:14:24.340Z,13.48
2019-04-14T08:16:54.788Z,13.47
2019-04-14T08:19:25.274Z,13.76
2019-04-14T08:21:55.806Z,13.91
2019-04-14T08:24:26.400Z,13.79
2019-04-14T08:26:56.878Z,13.98
2019-04-14T08:29:27.355Z,14.07
2019-04-14T08:31:57.847Z,14.34
2019-04-14T08:34:28.284Z,14.67
2019-04-14T08:36:58.761Z,14.77
2019-04-14T08:39:29.195Z,14.86
2019-04-14T08:42:27.687Z,14.98
2019-04-14T08:45:00.107Z,15.01
2019-04-14T08:47:47.921Z,15.24
2019-04-14T08:50:39.608Z,15.52
2019-04-14T08:53:19.447Z,15.53
2019-04-14T08:56:07.435Z,15.72
2019-04-14T08:58:56.758Z,15.89
2019-04-14T09:01:36.270Z,16.03
2019-04-14T09:04:40.822Z,15.92
2019-04-14T09:07:24.365Z,16.13
2019-04-14T09:09:58.220Z,16.44
2019-04-14T09:12:32.028Z,16.69
2019-04-14T09:15:02.466Z,16.76
2019-04-14T09:17:32.916Z,16.93
2019-04-14T09:20:03.398Z,16.69
2019-04-14T09:22:33.842Z,16.94
2019-04-14T09:25:04.451Z,17.14
2019-04-14T09:27:34.943Z,17.12
2019-04-14T09:30:06.341Z,17.11
2019-04-14T09:32:36.819Z,17.25
2019-04-14T09:35:07.519Z,17.20
2019-04-14T09:37:37.997Z,17.47
2019-04-14T09:40:08.749Z,17.61
2019-04-14T09:42:39.350Z,17.50
2019-04-14T09:45:10.092Z,17.32
2019-04-14T09:47:40.514Z,17.27
2019-04-14T09:50:11.418Z,17.62
2019-04-14T09:52:41.858Z,17.88
2019-04-14T09:55:12.350Z,18.05
2019-04-14T09:57:42.788Z,18.07
2019-04-14T10:00:14.975Z,18.21
2019-04-14T10:02:45.434Z,18.35
2019-04-14T10:05:15.951Z,18.20
2019-04-14T10:07:46.431Z,18.07
2019-04-14T10:10:16.869Z,18.28
2019-04-14T10:12:47.348Z,18.36
2019-04-14T10:15:17.828Z,18.53
2019-04-14T10:17:48.266Z,18.28
2019-04-14T10:20:18.744Z,18.23
2019-04-14T10:22:52.537Z,18.03
2019-04-14T10:25:23.918Z,18.15
2019-04-14T10:27:54.799Z,18.11
2019-04-14T10:30:25.251Z,18.31
2019-04-14T10:32:55.731Z,18.59
2019-04-14T10:35:26.163Z,18.76
2019-04-14T10:37:56.733Z,18.90
2019-04-14T10:40:27.217Z,18.77
2019-04-14T10:42:57.695Z,18.96
2019-04-14T10:45:28.132Z,19.00
2019-04-14T10:47:58.612Z,19.03
2019-04-14T10:50:31.057Z,19.22
2019-04-14T10:53:01.336Z,19.48
2019-04-14T10:55:31.759Z,19.20
2019-04-14T10:58:02.202Z,19.48
2019-04-14T11:00:32.797Z,19.38
2019-04-14T11:03:03.349Z,19.28
2019-04-14T11:05:42.725Z,19.10
2019-04-14T11:08:13.197Z,19.21
2019-04-14T11:10:43.745Z,19.30
2019-04-14T11:13:14.219Z,19.33
2019-04-14T11:15:44.700Z,19.32
2019-04-14T11:18:15.368Z,19.13
2019-04-14T11:20:45.817Z,19.14
2019-04-14T11:23:16.402Z,19.20
2019-04-14T11:25:46.858Z,19.14
2019-04-14T11:28:17.334Z,18.92
2019-04-14T11:30:47.838Z,19.14
2019-04-14T11:33:37.163Z,18.93
2019-04-14T11:36:25.420Z,19.17
2019-04-14T11:39:02.958Z,19.36
2019-04-14T11:41:33.402Z,19.21
2019-04-14T11:44:04.460Z,19.42
2019-04-14T11:46:35.052Z,19.21
2019-04-14T11:49:05.872Z,19.19
2019-04-14T11:51:36.445Z,19.56
2019-04-14T11:54:06.932Z,19.50
2019-04-14T11:56:37.406Z,19.68
2019-04-14T11:59:07.891Z,19.73
2019-04-14T12:01:57.206Z,19.83
2019-04-14T12:04:52.604Z,20.06
2019-04-14T12:07:32.926Z,19.74
2019-04-14T12:10:17.119Z,19.91
2019-04-14T12:12:47.599Z,19.83
2019-04-14T12:15:18.074Z,19.87
2019-04-14T12:17:48.565Z,19.83
2019-04-14T12:20:19.051Z,19.47
2019-04-14T12:22:49.636Z,19.53
2019-04-14T12:25:20.103Z,19.48
2019-04-14T12:27:51.312Z,19.54
2019-04-14T12:30:22.399Z,19.48
2019-04-14T12:32:52.875Z,19.61
2019-04-14T12:35:23.418Z,19.63
2019-04-14T12:37:53.897Z,19.37
2019-04-14T12:40:24.332Z,19.14
2019-04-14T12:43:02.791Z,19.04
2019-04-14T12:45:58.119Z,19.25
2019-04-14T12:48:53.280Z,19.34
2019-04-14T12:51:28.031Z,19.49
2019-04-14T12:53:58.502Z,19.52
2019-04-14T12:56:29.635Z,19.55
2019-04-14T12:59:19.297Z,19.60
2019-04-14T13:02:20.941Z,19.66
2019-04-14T13:05:04.252Z,19.70
2019-04-14T13:07:36.892Z,19.37
2019-04-14T13:10:08.290Z,19.41
2019-04-14T13:12:40.397Z,19.52
2019-04-14T13:15:11.236Z,19.58
2019-04-14T13:17:41.711Z,19.59
2019-04-14T13:20:12.788Z,19.64
2019-04-14T13:22:43.359Z,19.73
2019-04-14T13:25:14.129Z,19.81
2019-04-14T13:27:44.766Z,19.83
2019-04-14T13:30:17.160Z,19.86
2019-04-14T13:32:47.788Z,19.83
2019-04-14T13:35:18.415Z,19.80
2019-04-14T13:37:49.073Z,19.72
2019-04-14T13:40:19.745Z,19.61
2019-04-14T13:42:50.222Z,19.46
2019-04-14T13:45:20.935Z,19.20
2019-04-14T13:47:51.597Z,19.14
2019-04-14T13:50:22.270Z,19.01
2019-04-14T13:52:52.748Z,18.98
2019-04-14T13:55:23.179Z,18.97
2019-04-14T13:57:53.916Z,18.78
2019-04-14T14:00:24.716Z,18.01
2019-04-14T14:02:55.148Z,18.72
2019-04-14T14:05:25.627Z,18.54
2019-04-14T14:07:56.186Z,18.50
2019-04-14T14:10:26.700Z,18.54
2019-04-14T14:13:03.379Z,18.43
2019-04-14T14:15:51.531Z,18.32
2019-04-14T14:18:31.622Z,18.33
2019-04-14T14:21:15.911Z,18.21
2019-04-14T14:24:03.618Z,18.11
2019-04-14T14:26:35.387Z,18.00
2019-04-14T14:29:06.212Z,17.84
2019-04-14T14:31:37.335Z,17.69
2019-04-14T14:34:08.195Z,17.59
2019-04-14T14:36:38.819Z,17.49
2019-04-14T14:39:10.564Z,17.44
2019-04-14T14:41:41.389Z,17.32
2019-04-14T14:44:12.051Z,17.37
2019-04-14T14:47:10.529Z,17.32
2019-04-14T14:50:05.688Z,17.24
2019-04-14T14:52:37.739Z,17.26
2019-04-14T14:55:08.757Z,17.23
2019-04-14T14:57:39.221Z,17.25
2019-04-14T15:00:18.328Z,17.21
2019-04-14T15:02:49.264Z,17.19
2019-04-14T15:05:19.859Z,17.05
2019-04-14T15:07:50.279Z,17.06
2019-04-14T15:10:20.814Z,16.96
2019-04-14T15:12:51.273Z,16.81
2019-04-14T15:15:21.747Z,16.72
2019-04-14T15:17:52.187Z,16.79
2019-04-14T15:20:22.767Z,16.78
2019-04-14T15:22:53.213Z,16.78
2019-04-14T15:25:23.784Z,16.67
2019-04-14T15:27:54.214Z,16.59
2019-04-14T15:30:24.783Z,16.53
2019-04-14T15:32:55.259Z,16.55
2019-04-14T15:35:25.740Z,16.51
2019-04-14T15:37:56.227Z,16.30
2019-04-14T15:40:26.762Z,16.38
2019-04-14T15:42:57.235Z,16.40
2019-04-14T15:45:27.755Z,16.31
2019-04-14T15:47:58.195Z,16.23
2019-04-14T15:50:28.670Z,16.18
2019-04-14T15:52:59.115Z,16.12
2019-04-14T15:55:29.599Z,16.05
2019-04-14T15:58:05.917Z,15.92
2019-04-14T16:01:01.211Z,15.90
2019-04-14T16:03:48.615Z,15.66
2019-04-14T16:06:46.698Z,15.70
2019-04-14T16:09:34.825Z,15.49
2019-04-14T16:12:27.216Z,15.49
2019-04-14T16:15:05.098Z,15.28
2019-04-14T16:17:52.776Z,15.11
2019-04-14T16:20:34.629Z,15.18
2019-04-14T16:23:05.137Z,15.20
2019-04-14T16:25:42.014Z,15.21
2019-04-14T16:28:18.175Z,15.09
2019-04-14T16:31:10.616Z,14.98
2019-04-14T16:33:58.522Z,15.04
2019-04-14T16:36:29.024Z,14.96
2019-04-14T16:38:59.470Z,14.94
2019-04-14T16:41:29.981Z,14.91
2019-04-14T16:44:00.392Z,14.87
2019-04-14T16:46:30.897Z,14.80
2019-04-14T16:49:01.395Z,14.70
2019-04-14T16:51:37.144Z,14.69
2019-04-14T16:54:18.193Z,14.63
2019-04-14T16:57:16.283Z,14.63
2019-04-14T16:59:46.783Z,14.70
2019-04-14T17:02:17.223Z,14.69
2019-04-14T17:04:47.707Z,14.60
2019-04-14T17:07:18.193Z,14.64
2019-04-14T17:09:48.634Z,14.64
2019-04-14T17:12:19.085Z,14.64
2019-04-14T17:14:56.768Z,14.58
2019-04-14T17:17:38.991Z,14.53
2019-04-14T17:20:35.391Z,14.54
2019-04-14T17:23:23.189Z,14.53
2019-04-14T17:26:02.069Z,14.54
2019-04-14T17:28:50.011Z,14.49
2019-04-14T17:31:28.522Z,14.45
2019-04-14T17:34:08.357Z,14.40
2019-04-14T17:36:54.166Z,14.44
2019-04-14T17:39:31.683Z,14.41
2019-04-14T17:42:16.254Z,14.42
2019-04-14T17:45:17.608Z,14.41
2019-04-14T17:48:15.756Z,14.43
2019-04-14T17:51:03.067Z,14.36
2019-04-14T17:53:54.166Z,14.25
2019-04-14T17:56:39.601Z,14.30
2019-04-14T17:59:21.898Z,14.30
2019-04-14T18:02:03.069Z,14.27
2019-04-14T18:05:07.340Z,14.26
2019-04-14T18:07:45.111Z,14.20
2019-04-14T18:10:37.204Z,14.21
2019-04-14T18:13:14.559Z,14.17
2019-04-14T18:15:55.326Z,14.18
2019-04-14T18:18:50.762Z,14.17
2019-04-14T18:21:21.202Z,14.10
2019-04-14T18:23:51.678Z,14.10
2019-04-14T18:26:22.150Z,14.05
2019-04-14T18:29:14.298Z,14.00
2019-04-14T18:32:03.613Z,13.98
2019-04-14T18:34:55.891Z,14.00
2019-04-14T18:37:48.048Z,14.00
2019-04-14T18:40:25.897Z,14.01
2019-04-14T18:43:18.404Z,13.95
2019-04-14T18:45:58.471Z,13.92
2019-04-14T18:48:53.687Z,13.93
2019-04-14T18:51:40.855Z,13.94
2019-04-14T18:54:27.036Z,13.88
2019-04-14T18:57:07.253Z,13.83
2019-04-14T18:59:56.584Z,13.87
2019-04-14T19:02:27.014Z,13.93
2019-04-14T19:04:57.507Z,13.92
2019-04-14T19:07:27.956Z,13.90
2019-04-14T19:09:58.400Z,13.90
2019-04-14T19:12:46.178Z,13.83
2019-04-14T19:15:35.728Z,13.85
2019-04-14T19:18:40.430Z,13.88
2019-04-14T19:21:13.635Z,13.86
2019-04-14T19:23:46.443Z,13.76
2019-04-14T19:26:16.385Z,13.67
2019-04-14T19:28:46.884Z,13.66
2019-04-14T19:31:17.430Z,13.72
2019-04-14T19:33:47.869Z,13.70
2019-04-14T19:36:18.329Z,13.75
2019-04-14T19:38:48.809Z,13.77
2019-04-14T19:41:19.240Z,13.81
2019-04-14T19:43:49.682Z,13.74
2019-04-14T19:46:20.158Z,13.72
2019-04-14T19:48:50.645Z,13.72
2019-04-14T19:51:21.129Z,13.74
2019-04-14T19:53:51.575Z,13.72
2019-04-14T19:56:22.062Z,13.71
2019-04-14T19:58:52.502Z,13.69
2019-04-14T20:01:22.979Z,13.70
2019-04-14T20:03:53.427Z,13.70
2019-04-14T20:06:23.918Z,13.63
2019-04-14T20:08:54.371Z,13.58
2019-04-14T20:11:24.928Z,13.61
2019-04-14T20:13:55.419Z,13.58
2019-04-14T20:16:56.768Z,13.58
2019-04-14T20:19:42.827Z,13.57
2019-04-14T20:22:24.684Z,13.59
2019-04-14T20:24:58.607Z,13.53
2019-04-14T20:27:47.999Z,13.53
2019-04-14T20:30:49.467Z,13.50
2019-04-14T20:33:20.028Z,13.50
2019-04-14T20:35:50.480Z,13.42
2019-04-14T20:38:20.923Z,13.44
2019-04-14T20:40:51.398Z,13.38
2019-04-14T20:43:22.150Z,13.35
2019-04-14T20:45:52.618Z,13.29
2019-04-14T20:48:23.086Z,13.31
2019-04-14T20:50:53.563Z,13.34
2019-04-14T20:53:25.273Z,13.27
2019-04-14T20:55:55.734Z,13.30
2019-04-14T20:58:26.217Z,13.24
2019-04-14T21:00:56.851Z,13.16
2019-04-14T21:03:48.980Z,13.14
2019-04-14T21:06:31.207Z,13.11
2019-04-14T21:09:19.054Z,13.11
2019-04-14T21:12:11.453Z,13.09
2019-04-14T21:15:00.775Z,13.06
2019-04-14T21:17:36.171Z,13.01
2019-04-14T21:20:32.405Z,13.03
2019-04-14T21:23:16.408Z,13.05
2019-04-14T21:26:01.318Z,12.99
2019-04-14T21:28:48.923Z,12.96
2019-04-14T21:31:35.278Z,12.99
2019-04-14T21:34:09.835Z,12.98
2019-04-14T21:36:59.246Z,12.38
2019-04-14T21:39:54.542Z,12.80
2019-04-14T21:42:25.015Z,12.89
2019-04-14T21:44:55.595Z,12.89
2019-04-14T21:47:26.033Z,12.90
2019-04-14T21:49:56.525Z,12.95
2019-04-14T21:52:45.794Z,12.89
2019-04-14T21:55:16.382Z,12.77
2019-04-14T21:58:04.161Z,12.74
2019-04-14T22:01:38.610Z,12.65
2019-04-14T22:04:40.022Z,12.62
2019-04-14T22:07:35.516Z,12.53
2019-04-14T22:10:27.145Z,12.50
2019-04-14T22:12:57.736Z,12.51
2019-04-14T22:15:28.192Z,12.39
2019-04-14T22:17:59.051Z,12.35
2019-04-14T22:20:29.502Z,12.33
2019-04-14T22:23:01.263Z,12.35
2019-04-14T22:25:31.769Z,12.37
2019-04-14T22:28:02.361Z,12.33
2019-04-14T22:30:32.944Z,12.35
2019-04-14T22:33:04.158Z,12.38
2019-04-14T22:35:34.650Z,12.39
2019-04-14T22:38:05.183Z,12.40
2019-04-14T22:40:35.720Z,12.39
2019-04-14T22:43:06.267Z,12.35
2019-04-14T22:45:36.871Z,12.43
2019-04-14T22:48:07.383Z,12.45
2019-04-14T22:50:37.857Z,12.47
2019-04-14T22:53:08.438Z,12.50
2019-04-14T22:55:38.876Z,12.54
2019-04-14T22:58:09.352Z,12.59
2019-04-14T23:00:50.581Z,12.63
2019-04-14T23:03:38.768Z,12.63
2019-04-14T23:06:21.934Z,12.65
2019-04-14T23:08:59.730Z,12.67
2019-04-14T23:11:52.034Z,12.64
2019-04-14T23:14:30.159Z,12.61
2019-04-14T23:17:19.600Z,12.56
2019-04-14T23:19:55.615Z,12.66
2019-04-14T23:22:39.188Z,12.63
2019-04-14T23:25:09.932Z,12.66
2019-04-14T23:27:40.380Z,12.69
2019-04-14T23:30:11.014Z,12.70
2019-04-14T23:32:41.494Z,12.67
2019-04-14T23:35:12.170Z,12.70
2019-04-14T23:37:42.700Z,12.68
2019-04-14T23:40:13.372Z,12.71
2019-04-14T23:42:43.902Z,12.68
2019-04-14T23:45:14.559Z,12.67
2019-04-14T23:47:45.008Z,12.66
2019-04-14T23:50:15.803Z,12.64
2019-04-14T23:52:46.247Z,12.59
2019-04-14T23:55:16.834Z,12.58
2019-04-14T23:57:47.311Z,12.63
